Time;durP1;ratioP1;P1;durP2;ratioP2;P2;SDS_P1;SDS_P2;PMS_P1;PMS_P2;Temp;Humidity;BMP_temperature;BMP_pressure;BME280_temperature;BME280_humidity;BME280_pressure;Samples;Min_cycle;Max_cycle;Signal;HPM_P1;HPM_P2
2022/08/19 00:02:02;;;;;;;11.45;9.35;;;;;;;;;;5019242;28;20181;-66
2022/08/19 00:04:35;;;;;;;13.85;9.00;;;;;;;;;;5019943;28;20190;-66
2022/08/19 00:07:03;;;;;;;10.85;8.70;;;;;;;;;;5017694;28;20186;-66
2022/08/19 00:09:28;;;;;;;9.40;8.38;;;;;;;;;;5035371;28;20272;-66
2022/08/19 00:11:55;;;;;;;8.98;7.95;;;;;;;;;;5015759;28;20261;-66
2022/08/19 00:14:21;;;;;;;11.30;8.65;;;;;;;;;;5029715;28;20630;-66
2022/08/19 00:16:48;;;;;;;11.73;9.15;;;;;;;;;;5014954;28;20591;-66
2022/08/19 00:19:14;;;;;;;10.75;8.88;;;;;;;;;;5026472;28;20502;-66
2022/08/19 00:21:39;;;;;;;9.77;8.77;;;;;;;;;;5010014;28;20192;-66
2022/08/19 00:24:08;;;;;;;10.52;9.38;;;;;;;;;;5028645;28;20232;-66
2022/08/19 00:26:33;;;;;;;11.52;9.27;;;;;;;;;;5014642;28;20207;-66
2022/08/19 00:29:00;;;;;;;11.02;9.18;;;;;;;;;;5027733;28;20182;-66
2022/08/19 00:31:27;;;;;;;9.35;8.32;;;;;;;;;;5033586;28;20607;-66
2022/08/19 00:33:53;;;;;;;11.43;8.80;;;;;;;;;;5028872;28;20835;-66
2022/08/19 00:36:18;;;;;;;11.68;9.05;;;;;;;;;;5017372;28;20205;-66
2022/08/19 00:38:44;;;;;;;11.80;9.40;;;;;;;;;;5027941;28;20182;-66
2022/08/19 00:41:17;;;;;;;10.45;9.35;;;;;;;;;;5028641;28;20549;-66
2022/08/19 00:43:42;;;;;;;11.50;9.77;;;;;;;;;;5024830;28;20182;-66
2022/08/19 00:46:08;;;;;;;11.77;9.52;;;;;;;;;;5028387;28;20201;-70
2022/08/19 00:48:34;;;;;;;11.38;9.77;;;;;;;;;;5027195;28;20197;-66
2022/08/19 00:51:00;;;;;;;12.88;10.13;;;;;;;;;;5025274;28;20288;-66
2022/08/19 00:53:27;;;;;;;12.38;10.13;;;;;;;;;;5026237;28;20184;-69
2022/08/19 00:55:56;;;;;;;12.82;10.40;;;;;;;;;;5025155;28;20689;-66
2022/08/19 00:58:27;;;;;;;13.55;10.57;;;;;;;;;;5028381;28;20212;-66
2022/08/19 01:00:52;;;;;;;15.38;11.32;;;;;;;;;;5027598;28;20174;-66
2022/08/19 01:03:20;;;;;;;12.27;10.68;;;;;;;;;;5017658;28;20655;-66
2022/08/19 01:05:48;;;;;;;13.43;10.65;;;;;;;;;;5023068;28;20202;-66
2022/08/19 01:08:15;;;;;;;13.07;10.35;;;;;;;;;;5028048;28;20232;-66
2022/08/19 01:10:46;;;;;;;11.98;10.68;;;;;;;;;;5027727;28;20634;-66
2022/08/19 01:13:14;;;;;;;13.15;11.32;;;;;;;;;;5017549;28;20677;-66
2022/08/19 01:15:44;;;;;;;16.70;12.75;;;;;;;;;;5024805;28;20175;-66
2022/08/19 01:18:11;;;;;;;12.50;11.05;;;;;;;;;;5028094;28;20188;-66
2022/08/19 01:20:38;;;;;;;15.65;11.82;;;;;;;;;;5025890;28;20491;-66
2022/08/19 01:23:04;;;;;;;16.15;11.70;;;;;;;;;;5012329;28;20189;-66
2022/08/19 01:25:33;;;;;;;14.77;12.18;;;;;;;;;;5026344;28;20230;-66
2022/08/19 01:27:58;;;;;;;13.63;10.82;;;;;;;;;;5021690;28;20187;-66
2022/08/19 01:30:28;;;;;;;13.43;11.77;;;;;;;;;;5016841;28;20551;-66
2022/08/19 01:32:54;;;;;;;14.27;10.52;;;;;;;;;;5029088;28;20760;-66
2022/08/19 01:35:20;;;;;;;14.73;11.75;;;;;;;;;;5027530;28;20532;-66
2022/08/19 01:37:53;;;;;;;12.85;10.68;;;;;;;;;;5027625;28;20615;-66
2022/08/19 01:40:21;;;;;;;14.43;11.32;;;;;;;;;;5027370;28;20688;-66
2022/08/19 01:42:48;;;;;;;15.52;10.82;;;;;;;;;;5019815;28;20183;-66
2022/08/19 01:45:14;;;;;;;11.85;10.55;;;;;;;;;;5026203;28;20393;-66
2022/08/19 01:47:40;;;;;;;13.35;10.60;;;;;;;;;;5027028;28;20183;-66
2022/08/19 01:50:07;;;;;;;14.00;11.02;;;;;;;;;;5030666;28;20264;-66
2022/08/19 01:52:38;;;;;;;15.15;11.82;;;;;;;;;;5030839;28;20648;-66
2022/08/19 01:55:08;;;;;;;19.52;13.38;;;;;;;;;;5030804;28;20170;-66
2022/08/19 01:57:34;;;;;;;17.50;13.98;;;;;;;;;;5021763;28;20186;-66
2022/08/19 02:00:01;;;;;;;19.00;14.63;;;;;;;;;;5031465;28;20178;-66
2022/08/19 02:02:27;;;;;;;17.77;13.20;;;;;;;;;;5022771;28;20182;-66
2022/08/19 02:04:52;;;;;;;17.15;13.27;;;;;;;;;;5031386;28;20240;-66
2022/08/19 02:07:21;;;;;;;21.70;16.02;;;;;;;;;;5030044;28;20182;-66
2022/08/19 02:09:47;;;;;;;23.08;16.33;;;;;;;;;;5021431;28;20187;-66
2022/08/19 02:12:14;;;;;;;20.67;15.88;;;;;;;;;;5016492;28;20179;-66
2022/08/19 02:14:39;;;;;;;20.25;16.35;;;;;;;;;;5031346;28;20187;-66
2022/08/19 02:17:04;;;;;;;21.17;16.15;;;;;;;;;;5019734;28;20544;-66
2022/08/19 02:19:32;;;;;;;23.08;15.60;;;;;;;;;;5030767;28;20185;-66
2022/08/19 02:21:58;;;;;;;24.08;17.75;;;;;;;;;;5020673;28;20218;-66
2022/08/19 02:24:23;;;;;;;19.70;15.90;;;;;;;;;;5027660;28;20268;-66
2022/08/19 02:26:49;;;;;;;19.80;14.77;;;;;;;;;;5021969;28;20218;-66
2022/08/19 02:29:14;;;;;;;19.83;15.07;;;;;;;;;;5024249;28;20222;-66
2022/08/19 02:31:39;;;;;;;19.27;15.02;;;;;;;;;;5018348;28;20209;-66
2022/08/19 02:34:05;;;;;;;22.02;16.77;;;;;;;;;;5029521;28;20182;-66
2022/08/19 02:36:30;;;;;;;21.33;16.30;;;;;;;;;;5029584;28;20185;-66
2022/08/19 02:38:56;;;;;;;19.45;15.35;;;;;;;;;;5030545;28;20174;-66
2022/08/19 02:41:27;;;;;;;23.73;16.15;;;;;;;;;;5029976;28;20629;-66
2022/08/19 02:43:55;;;;;;;16.50;14.00;;;;;;;;;;5019562;28;20838;-66
2022/08/19 02:46:23;;;;;;;19.27;15.82;;;;;;;;;;5025446;28;20508;-66
2022/08/19 02:48:51;;;;;;;23.35;16.10;;;;;;;;;;5029668;28;20182;-66
2022/08/19 02:51:23;;;;;;;20.70;16.13;;;;;;;;;;5029412;28;20252;-66
2022/08/19 02:53:48;;;;;;;21.52;16.70;;;;;;;;;;5019403;28;20222;-66
2022/08/19 02:56:14;;;;;;;20.17;15.73;;;;;;;;;;5028083;28;20632;-66
2022/08/19 02:58:40;;;;;;;23.88;16.85;;;;;;;;;;5028080;28;20182;-66
2022/08/19 03:01:06;;;;;;;20.50;16.27;;;;;;;;;;5029550;28;20174;-66
2022/08/19 03:03:32;;;;;;;19.15;15.75;;;;;;;;;;5024535;28;20186;-66
2022/08/19 03:06:10;;;;;;;19.83;16.10;;;;;;;;;;5030180;28;20625;-66
2022/08/19 03:08:36;;;;;;;18.70;14.63;;;;;;;;;;5030496;28;20186;-66
2022/08/19 03:11:02;;;;;;;17.58;14.73;;;;;;;;;;5030100;28;20170;-66
2022/08/19 03:13:28;;;;;;;17.75;14.95;;;;;;;;;;5030532;28;20645;-66
2022/08/19 03:15:53;;;;;;;23.00;15.77;;;;;;;;;;5029169;28;20524;-66
2022/08/19 03:18:19;;;;;;;22.05;17.80;;;;;;;;;;5028878;28;20189;-66
2022/08/19 03:20:48;;;;;;;24.65;17.58;;;;;;;;;;5013371;28;20186;-66
2022/08/19 03:23:15;;;;;;;22.33;15.95;;;;;;;;;;5021401;28;20210;-66
2022/08/19 03:25:43;;;;;;;24.48;17.40;;;;;;;;;;5025217;28;20225;-66
2022/08/19 03:28:09;;;;;;;22.40;17.65;;;;;;;;;;5020645;28;20182;-66
2022/08/19 03:30:35;;;;;;;24.48;18.48;;;;;;;;;;5030071;28;20543;-66
2022/08/19 03:33:01;;;;;;;22.42;16.67;;;;;;;;;;5029279;28;20205;-66
2022/08/19 03:35:27;;;;;;;21.42;16.63;;;;;;;;;;5029780;28;20570;-66
2022/08/19 03:37:52;;;;;;;19.48;15.65;;;;;;;;;;5028794;28;20208;-66
2022/08/19 03:40:18;;;;;;;19.83;14.90;;;;;;;;;;5029952;28;20182;-66
2022/08/19 03:42:44;;;;;;;19.73;14.93;;;;;;;;;;5016204;28;20187;-66
2022/08/19 03:45:10;;;;;;;21.42;16.00;;;;;;;;;;5029248;28;20638;-66
2022/08/19 03:47:36;;;;;;;20.85;16.73;;;;;;;;;;5018492;28;20182;-66
2022/08/19 03:50:02;;;;;;;21.85;16.15;;;;;;;;;;5018423;28;20641;-66
2022/08/19 03:52:28;;;;;;;21.67;16.73;;;;;;;;;;5020594;28;20179;-66
2022/08/19 03:54:53;;;;;;;18.88;14.88;;;;;;;;;;5025351;28;20520;-66
2022/08/19 03:57:18;;;;;;;22.33;16.23;;;;;;;;;;5026550;28;20209;-66
2022/08/19 03:59:44;;;;;;;21.05;16.55;;;;;;;;;;5028520;28;20393;-66
2022/08/19 04:02:11;;;;;;;23.23;17.40;;;;;;;;;;5025628;28;20490;-66
2022/08/19 04:04:39;;;;;;;23.48;17.90;;;;;;;;;;5025178;28;20662;-66
2022/08/19 04:07:05;;;;;;;22.52;17.00;;;;;;;;;;5018900;28;20253;-66
2022/08/19 04:09:31;;;;;;;21.98;16.83;;;;;;;;;;5040275;28;20178;-66
2022/08/19 04:11:57;;;;;;;24.23;17.48;;;;;;;;;;5028313;28;20188;-66
2022/08/19 04:14:29;;;;;;;22.85;16.55;;;;;;;;;;5014520;28;20221;-66
2022/08/19 04:16:55;;;;;;;23.30;17.70;;;;;;;;;;5025648;28;20249;-66
2022/08/19 04:19:22;;;;;;;25.15;17.80;;;;;;;;;;5027686;28;20177;-66
2022/08/19 04:21:51;;;;;;;23.73;17.33;;;;;;;;;;5027712;28;20209;-66
2022/08/19 04:24:17;;;;;;;21.02;16.35;;;;;;;;;;5027935;28;20736;-66
2022/08/19 04:26:43;;;;;;;22.52;16.73;;;;;;;;;;5026749;28;20202;-66
2022/08/19 04:29:16;;;;;;;21.33;16.13;;;;;;;;;;5023340;28;20178;-66
2022/08/19 04:31:43;;;;;;;21.88;15.15;;;;;;;;;;5020646;28;20235;-66
2022/08/19 04:34:10;;;;;;;23.10;16.38;;;;;;;;;;5023643;28;20228;-66
2022/08/19 04:36:37;;;;;;;24.42;16.15;;;;;;;;;;5029316;28;20688;-66
2022/08/19 04:39:10;;;;;;;19.27;14.90;;;;;;;;;;5021801;28;20205;-66
2022/08/19 04:44:20;;;;;;;20.85;16.17;;;;;;;;;;5028017;28;20657;-66
2022/08/19 04:46:50;;;;;;;20.98;16.27;;;;;;;;;;5027591;28;20206;-66
2022/08/19 04:49:18;;;;;;;21.33;15.98;;;;;;;;;;5018366;28;20174;-66
2022/08/19 04:51:49;;;;;;;18.88;15.13;;;;;;;;;;5027273;28;20235;-66
2022/08/19 04:54:17;;;;;;;19.15;15.60;;;;;;;;;;5019276;28;20732;-66
2022/08/19 04:56:43;;;;;;;18.77;15.13;;;;;;;;;;5024207;28;20183;-66
2022/08/19 04:59:09;;;;;;;25.50;16.40;;;;;;;;;;5015758;28;20645;-66
2022/08/19 05:01:36;;;;;;;18.65;14.95;;;;;;;;;;5019030;28;20225;-66
2022/08/19 05:04:04;;;;;;;21.70;16.55;;;;;;;;;;5024244;28;20602;-66
2022/08/19 05:06:33;;;;;;;24.25;17.75;;;;;;;;;;5028292;28;20210;-66
2022/08/19 05:09:00;;;;;;;22.33;17.17;;;;;;;;;;5035784;28;20191;-66
2022/08/19 05:11:28;;;;;;;22.75;16.95;;;;;;;;;;5018680;28;20612;-66
2022/08/19 05:13:54;;;;;;;21.15;15.80;;;;;;;;;;5027483;28;20660;-66
2022/08/19 05:16:21;;;;;;;22.33;17.00;;;;;;;;;;5027380;28;20171;-66
2022/08/19 05:24:16;;;;;;;24.65;18.27;;;;;;;;;;5028520;28;20248;-66
2022/08/19 05:26:46;;;;;;;27.02;18.52;;;;;;;;;;5031871;28;20206;-66
2022/08/19 05:29:13;;;;;;;23.20;18.25;;;;;;;;;;5030004;28;20193;-66
2022/08/19 05:31:38;;;;;;;23.33;18.45;;;;;;;;;;5032725;28;20202;-66
2022/08/19 05:34:04;;;;;;;24.95;18.63;;;;;;;;;;5029563;28;20181;-67
2022/08/19 05:36:35;;;;;;;25.13;17.65;;;;;;;;;;5017979;28;20185;-66
2022/08/19 05:39:02;;;;;;;25.38;17.80;;;;;;;;;;5028426;28;20193;-66
2022/08/19 05:41:29;;;;;;;25.58;17.77;;;;;;;;;;5030851;28;20591;-66
2022/08/19 05:43:58;;;;;;;25.83;18.42;;;;;;;;;;5027099;28;20190;-66
2022/08/19 05:46:23;;;;;;;23.95;17.52;;;;;;;;;;5031079;28;20606;-66
2022/08/19 05:48:49;;;;;;;22.38;16.67;;;;;;;;;;5027015;28;20186;-66
2022/08/19 05:51:15;;;;;;;21.70;16.88;;;;;;;;;;5031247;28;20221;-67
2022/08/19 05:53:41;;;;;;;20.33;16.02;;;;;;;;;;5031133;28;20636;-66
2022/08/19 05:56:08;;;;;;;21.80;16.08;;;;;;;;;;5031937;28;20272;-66
2022/08/19 05:58:35;;;;;;;22.13;16.00;;;;;;;;;;5020320;28;20175;-66
2022/08/19 06:01:05;;;;;;;20.92;16.35;;;;;;;;;;5031792;28;20178;-66
2022/08/19 06:03:34;;;;;;;21.48;17.63;;;;;;;;;;5030748;28;20273;-66
2022/08/19 06:06:00;;;;;;;21.83;16.73;;;;;;;;;;5031515;28;20194;-66
2022/08/19 06:08:28;;;;;;;23.52;17.77;;;;;;;;;;5022201;28;20702;-66
2022/08/19 06:10:54;;;;;;;23.73;17.98;;;;;;;;;;5029942;28;20766;-66
2022/08/19 06:13:19;;;;;;;23.55;17.77;;;;;;;;;;5022240;28;20179;-66
2022/08/19 06:15:46;;;;;;;23.90;18.60;;;;;;;;;;5027973;28;20189;-66
2022/08/19 06:18:12;;;;;;;24.67;18.15;;;;;;;;;;5028409;28;20174;-66
2022/08/19 06:20:38;;;;;;;25.33;18.13;;;;;;;;;;5030659;28;20273;-66
2022/08/19 06:23:03;;;;;;;25.92;20.27;;;;;;;;;;5025514;28;20274;-66
2022/08/19 06:25:28;;;;;;;32.63;24.30;;;;;;;;;;5022367;28;20230;-66
2022/08/19 06:27:54;;;;;;;34.90;23.67;;;;;;;;;;5024672;28;20693;-65
2022/08/19 06:30:19;;;;;;;40.33;27.40;;;;;;;;;;5028648;28;20186;-66
2022/08/19 06:32:44;;;;;;;44.58;27.38;;;;;;;;;;5028009;28;20628;-66
2022/08/19 06:35:11;;;;;;;38.53;26.15;;;;;;;;;;5029583;28;20201;-66
2022/08/19 06:37:37;;;;;;;37.88;24.55;;;;;;;;;;5030370;28;20642;-67
2022/08/19 06:40:03;;;;;;;34.95;24.92;;;;;;;;;;5030415;28;20185;-66
2022/08/19 06:42:29;;;;;;;32.03;23.15;;;;;;;;;;5017275;28;20191;-66
2022/08/19 06:44:54;;;;;;;28.98;22.33;;;;;;;;;;5029680;28;20282;-65
2022/08/19 06:47:21;;;;;;;29.73;21.70;;;;;;;;;;5030535;28;20604;-66
2022/08/19 06:49:46;;;;;;;30.83;21.75;;;;;;;;;;5029472;28;20266;-64
2022/08/19 06:52:12;;;;;;;31.67;21.13;;;;;;;;;;5030751;28;20266;-65
2022/08/19 06:54:39;;;;;;;32.13;22.13;;;;;;;;;;5026718;28;20178;-64
2022/08/19 06:57:06;;;;;;;25.80;21.33;;;;;;;;;;5016512;28;20599;-64
2022/08/19 06:59:32;;;;;;;30.02;22.70;;;;;;;;;;5030260;28;20194;-64
2022/08/19 07:02:00;;;;;;;28.42;21.85;;;;;;;;;;5030082;28;20220;-64
2022/08/19 07:04:29;;;;;;;28.08;22.88;;;;;;;;;;5023441;28;20649;-65
2022/08/19 07:07:07;;;;;;;29.75;21.05;;;;;;;;;;5028872;28;20558;-65
2022/08/19 07:09:32;;;;;;;28.40;20.42;;;;;;;;;;5026761;28;20638;-65
2022/08/19 07:11:58;;;;;;;27.45;20.27;;;;;;;;;;5027758;28;20193;-65
2022/08/19 07:14:27;;;;;;;30.10;21.90;;;;;;;;;;5022242;28;20263;-65
2022/08/19 07:16:54;;;;;;;25.58;20.40;;;;;;;;;;5030637;28;20178;-64
2022/08/19 07:19:22;;;;;;;28.00;20.80;;;;;;;;;;5029112;28;20206;-65
2022/08/19 07:21:52;;;;;;;26.42;19.83;;;;;;;;;;5030136;28;20182;-65
2022/08/19 07:24:17;;;;;;;23.80;18.65;;;;;;;;;;5015049;28;20222;-64
2022/08/19 07:26:43;;;;;;;24.42;19.38;;;;;;;;;;5019727;28;20202;-65
2022/08/19 07:29:11;;;;;;;23.73;18.67;;;;;;;;;;5027577;28;20252;-64
2022/08/19 07:31:36;;;;;;;24.80;19.63;;;;;;;;;;5018638;28;20241;-65
2022/08/19 07:34:07;;;;;;;25.00;18.38;;;;;;;;;;5026699;28;20175;-64
2022/08/19 07:36:35;;;;;;;24.05;19.10;;;;;;;;;;5030292;28;20185;-65
2022/08/19 07:39:05;;;;;;;26.83;18.92;;;;;;;;;;5020599;28;20209;-65
2022/08/19 07:41:31;;;;;;;24.50;19.20;;;;;;;;;;5028574;28;20213;-64
2022/08/19 07:43:57;;;;;;;22.50;18.23;;;;;;;;;;5021865;28;20193;-65
2022/08/19 07:46:22;;;;;;;21.92;17.27;;;;;;;;;;5025707;28;20202;-63
2022/08/19 07:48:50;;;;;;;25.27;18.92;;;;;;;;;;5024100;28;20193;-63
2022/08/19 07:51:19;;;;;;;25.70;19.17;;;;;;;;;;5024566;28;20269;-64
2022/08/19 07:53:45;;;;;;;22.00;18.88;;;;;;;;;;5016514;28;20205;-64
2022/08/19 07:56:12;;;;;;;23.58;18.88;;;;;;;;;;5029775;28;20315;-64
2022/08/19 07:58:41;;;;;;;25.42;17.98;;;;;;;;;;5025692;28;20206;-64
2022/08/19 08:01:07;;;;;;;21.77;17.25;;;;;;;;;;5029393;28;20213;-64
2022/08/19 08:09:20;;;;;;;21.13;16.55;;;;;;;;;;5030579;28;20189;-64
2022/08/19 08:11:50;;;;;;;24.13;17.45;;;;;;;;;;5029498;28;20205;-64
2022/08/19 08:14:18;;;;;;;19.95;17.40;;;;;;;;;;5023567;28;20190;-64
2022/08/19 08:16:45;;;;;;;25.98;17.55;;;;;;;;;;5029557;28;20188;-64
2022/08/19 08:19:11;;;;;;;23.38;17.73;;;;;;;;;;5023654;28;20186;-64
2022/08/19 08:21:36;;;;;;;25.13;19.02;;;;;;;;;;5029475;28;20209;-65
2022/08/19 08:24:02;;;;;;;23.95;17.92;;;;;;;;;;5014447;28;20246;-65
2022/08/19 08:26:28;;;;;;;21.90;18.83;;;;;;;;;;5027573;28;20255;-64
2022/08/19 08:28:53;;;;;;;23.30;18.58;;;;;;;;;;5028422;28;20185;-64
2022/08/19 08:31:19;;;;;;;24.42;19.00;;;;;;;;;;5026512;28;20693;-64
2022/08/19 08:33:46;;;;;;;21.83;18.75;;;;;;;;;;5022897;28;20270;-64
2022/08/19 08:36:13;;;;;;;23.27;18.48;;;;;;;;;;5026010;28;20220;-64
2022/08/19 08:38:40;;;;;;;23.67;17.67;;;;;;;;;;5021823;28;20272;-64
2022/08/19 08:41:31;;;;;;;25.67;18.70;;;;;;;;;;5026780;28;20257;-65
2022/08/19 08:43:57;;;;;;;20.08;17.15;;;;;;;;;;5014398;28;20502;-64
2022/08/19 08:46:38;;;;;;;21.80;16.33;;;;;;;;;;5021538;28;20684;-65
2022/08/19 08:49:33;;;;;;;23.10;17.13;;;;;;;;;;5028861;28;20388;-64
2022/08/19 08:52:09;;;;;;;22.15;18.27;;;;;;;;;;5016477;28;20174;-65
2022/08/19 08:54:42;;;;;;;20.20;15.63;;;;;;;;;;5023261;28;20182;-64
2022/08/19 08:57:13;;;;;;;20.92;16.90;;;;;;;;;;5011334;28;20182;-65
2022/08/19 08:59:41;;;;;;;23.25;16.55;;;;;;;;;;5021691;28;20189;-64
2022/08/19 09:02:07;;;;;;;19.27;16.85;;;;;;;;;;5029626;28;20319;-65
2022/08/19 09:04:34;;;;;;;21.13;16.00;;;;;;;;;;5025371;28;20222;-65
2022/08/19 09:07:38;;;;;;;20.50;17.52;;;;;;;;;;5031706;28;20206;-64
2022/08/19 09:10:25;;;;;;;24.65;17.15;;;;;;;;;;4994688;28;20708;-65
2022/08/19 09:13:06;;;;;;;17.73;15.55;;;;;;;;;;5020697;28;20174;-65
2022/08/19 09:15:47;;;;;;;17.40;15.05;;;;;;;;;;5030413;28;20656;-65
2022/08/19 09:18:14;;;;;;;17.83;14.10;;;;;;;;;;5028119;28;20201;-65
2022/08/19 09:20:39;;;;;;;18.33;14.80;;;;;;;;;;5017850;28;20737;-65
2022/08/19 09:23:05;;;;;;;16.10;12.90;;;;;;;;;;5033131;28;20265;-65
2022/08/19 09:25:31;;;;;;;16.40;13.05;;;;;;;;;;5028426;28;20253;-65
2022/08/19 09:27:57;;;;;;;15.68;13.07;;;;;;;;;;5031860;28;20193;-65
2022/08/19 09:30:25;;;;;;;17.52;12.15;;;;;;;;;;5029193;28;20182;-65
2022/08/19 09:32:52;;;;;;;23.80;15.30;;;;;;;;;;5032244;28;20249;-65
2022/08/19 09:35:18;;;;;;;24.38;12.57;;;;;;;;;;5028539;28;20221;-62
2022/08/19 09:37:44;;;;;;;11.27;9.10;;;;;;;;;;5031762;28;20178;-62
2022/08/19 09:40:11;;;;;;;11.48;9.45;;;;;;;;;;5020923;28;20174;-62
2022/08/19 09:42:36;;;;;;;11.90;9.45;;;;;;;;;;5026717;28;20268;-62
2022/08/19 09:45:03;;;;;;;15.27;8.75;;;;;;;;;;5026536;28;20324;-62
2022/08/19 09:47:28;;;;;;;11.80;7.20;;;;;;;;;;5032164;28;20201;-62
2022/08/19 09:49:54;;;;;;;12.13;8.38;;;;;;;;;;5025028;28;20178;-62
2022/08/19 09:52:20;;;;;;;11.43;8.35;;;;;;;;;;5031441;28;20386;-63
2022/08/19 09:54:45;;;;;;;12.02;9.45;;;;;;;;;;5023876;28;20588;-62
2022/08/19 09:57:11;;;;;;;11.05;9.43;;;;;;;;;;5031664;28;20174;-62
2022/08/19 09:59:36;;;;;;;12.13;9.45;;;;;;;;;;5029905;28;20194;-65
2022/08/19 10:02:02;;;;;;;10.70;8.85;;;;;;;;;;5031121;28;20206;-65
2022/08/19 10:05:47;;;;;;;11.68;9.77;;;;;;;;;;5025836;28;20372;-65
2022/08/19 10:07:13;;;;;;;10.85;9.48;;;;;;;;;;5028408;28;20727;-65
2022/08/19 10:09:40;;;;;;;11.68;8.90;;;;;;;;;;5034925;28;20185;-65
2022/08/19 10:12:06;;;;;;;10.05;8.63;;;;;;;;;;5025932;28;20240;-64
2022/08/19 10:14:32;;;;;;;11.50;10.30;;;;;;;;;;5029614;28;20178;-63
2022/08/19 10:17:00;;;;;;;11.40;10.20;;;;;;;;;;5031499;28;20275;-62
2022/08/19 10:19:25;;;;;;;14.60;11.38;;;;;;;;;;5026775;28;20182;-63
2022/08/19 10:21:51;;;;;;;13.27;10.68;;;;;;;;;;5022275;28;20259;-63
2022/08/19 10:24:16;;;;;;;10.07;9.07;;;;;;;;;;5027170;28;20278;-65
2022/08/19 10:26:44;;;;;;;9.57;7.97;;;;;;;;;;5020620;28;20808;-65
2022/08/19 10:29:11;;;;;;;9.43;8.43;;;;;;;;;;5028558;28;20582;-65
2022/08/19 10:31:38;;;;;;;10.02;8.90;;;;;;;;;;5020401;28;20198;-65
2022/08/19 10:34:03;;;;;;;10.88;8.68;;;;;;;;;;5024888;28;20186;-65
2022/08/19 10:36:32;;;;;;;12.23;8.85;;;;;;;;;;5031298;28;20177;-65
2022/08/19 10:39:01;;;;;;;11.65;9.10;;;;;;;;;;5021913;28;20603;-66
2022/08/19 10:41:29;;;;;;;9.63;7.55;;;;;;;;;;5030535;28;20668;-65
2022/08/19 10:43:57;;;;;;;7.70;6.93;;;;;;;;;;5031052;28;20232;-65
2022/08/19 10:46:24;;;;;;;8.95;7.78;;;;;;;;;;5030383;28;20284;-65
2022/08/19 10:48:50;;;;;;;9.27;8.32;;;;;;;;;;5030948;28;20265;-65
2022/08/19 10:54:01;;;;;;;9.90;8.90;;;;;;;;;;5030416;28;20201;-65
2022/08/19 10:59:13;;;;;;;9.38;8.40;;;;;;;;;;5017429;28;20188;-65
2022/08/19 11:01:39;;;;;;;11.13;9.65;;;;;;;;;;5031135;28;20185;-65
2022/08/19 11:04:08;;;;;;;9.93;8.88;;;;;;;;;;5030466;28;20520;-64
2022/08/19 11:06:34;;;;;;;10.68;9.52;;;;;;;;;;5018471;28;20225;-65
2022/08/19 11:08:59;;;;;;;10.15;8.82;;;;;;;;;;5039329;28;20179;-65
2022/08/19 11:11:26;;;;;;;10.20;8.82;;;;;;;;;;5030567;28;20265;-65
2022/08/19 11:13:52;;;;;;;12.35;11.07;;;;;;;;;;5030247;28;20697;-65
2022/08/19 11:16:21;;;;;;;11.07;9.52;;;;;;;;;;5019937;28;20174;-65
2022/08/19 11:18:50;;;;;;;9.75;8.75;;;;;;;;;;5028170;28;20189;-65
2022/08/19 11:21:19;;;;;;;10.88;9.77;;;;;;;;;;5021449;28;20185;-65
2022/08/19 11:23:46;;;;;;;13.13;9.55;;;;;;;;;;5029957;28;20230;-65
2022/08/19 11:26:12;;;;;;;11.57;8.20;;;;;;;;;;5029391;28;20194;-64
2022/08/19 11:28:39;;;;;;;10.43;7.55;;;;;;;;;;5030309;28;20256;-64
2022/08/19 11:31:09;;;;;;;11.40;8.95;;;;;;;;;;5016350;28;20587;-65
2022/08/19 11:33:34;;;;;;;12.32;9.23;;;;;;;;;;5030783;28;20183;-65
2022/08/19 11:36:00;;;;;;;8.18;7.20;;;;;;;;;;5015913;28;20178;-62
2022/08/19 11:38:26;;;;;;;10.00;8.02;;;;;;;;;;5030907;28;20190;-64
2022/08/19 11:40:59;;;;;;;10.07;7.82;;;;;;;;;;5017805;28;20197;-64
2022/08/19 11:43:26;;;;;;;9.20;8.05;;;;;;;;;;5028899;28;20182;-64
2022/08/19 11:45:51;;;;;;;9.23;7.47;;;;;;;;;;5026156;28;20256;-64
2022/08/19 11:48:21;;;;;;;7.28;6.57;;;;;;;;;;5029314;28;20182;-64
2022/08/19 11:50:47;;;;;;;7.97;7.18;;;;;;;;;;5016936;28;20194;-64
2022/08/19 11:53:12;;;;;;;7.70;6.93;;;;;;;;;;5026686;28;20561;-64
2022/08/19 11:55:39;;;;;;;12.55;7.85;;;;;;;;;;5017957;28;20209;-64
2022/08/19 11:58:06;;;;;;;8.13;7.13;;;;;;;;;;5028516;28;20170;-63
2022/08/19 12:00:33;;;;;;;11.70;7.00;;;;;;;;;;5023661;28;20210;-63
2022/08/19 12:02:59;;;;;;;6.70;6.00;;;;;;;;;;5029328;28;20192;-63
2022/08/19 12:05:24;;;;;;;8.00;6.93;;;;;;;;;;5028264;28;20202;-63
2022/08/19 12:07:50;;;;;;;7.85;7.05;;;;;;;;;;5036116;28;20207;-64
2022/08/19 12:10:15;;;;;;;7.50;6.80;;;;;;;;;;5034387;28;20225;-64
2022/08/19 12:12:45;;;;;;;8.00;7.00;;;;;;;;;;5015888;28;20213;-63
2022/08/19 12:15:11;;;;;;;11.75;8.77;;;;;;;;;;5029160;28;20182;-64
2022/08/19 12:17:37;;;;;;;12.88;9.35;;;;;;;;;;5028877;28;20637;-64
2022/08/19 12:20:05;;;;;;;9.82;7.85;;;;;;;;;;5026520;28;20459;-65
2022/08/19 12:22:30;;;;;;;9.43;7.57;;;;;;;;;;5025952;28;20185;-65
2022/08/19 12:24:56;;;;;;;9.73;8.75;;;;;;;;;;5028954;28;20228;-65
2022/08/19 12:27:21;;;;;;;12.30;11.05;;;;;;;;;;5018470;28;20207;-65
2022/08/19 12:29:47;;;;;;;10.02;7.88;;;;;;;;;;5029720;28;20209;-64
2022/08/19 12:32:12;;;;;;;10.55;8.45;;;;;;;;;;5022583;28;20685;-64
2022/08/19 12:34:38;;;;;;;9.73;8.73;;;;;;;;;;5028429;28;20217;-65
2022/08/19 12:37:05;;;;;;;9.20;7.57;;;;;;;;;;5029116;28;20525;-64
2022/08/19 12:39:41;;;;;;;8.35;7.47;;;;;;;;;;5028758;28;20178;-64
2022/08/19 12:42:09;;;;;;;9.95;8.95;;;;;;;;;;5029579;28;20186;-66
2022/08/19 12:44:36;;;;;;;10.90;9.05;;;;;;;;;;5029282;28;20293;-64
2022/08/19 12:47:02;;;;;;;8.88;8.02;;;;;;;;;;5019719;28;20630;-64
2022/08/19 12:49:28;;;;;;;8.10;7.30;;;;;;;;;;5023372;28;20201;-64
2022/08/19 12:51:54;;;;;;;9.75;8.35;;;;;;;;;;5029029;28;20189;-64
2022/08/19 12:54:19;;;;;;;10.25;9.25;;;;;;;;;;5027973;28;20177;-64
2022/08/19 12:56:45;;;;;;;9.80;8.77;;;;;;;;;;5014317;28;20206;-65
2022/08/19 12:59:11;;;;;;;10.75;9.25;;;;;;;;;;5028479;28;20181;-66
2022/08/19 13:01:37;;;;;;;8.48;7.68;;;;;;;;;;5028846;28;20186;-65
2022/08/19 13:04:03;;;;;;;7.97;7.18;;;;;;;;;;5028758;28;20650;-65
2022/08/19 13:06:28;;;;;;;6.70;5.95;;;;;;;;;;5027657;28;20206;-64
2022/08/19 13:08:54;;;;;;;7.68;6.88;;;;;;;;;;5040246;28;20518;-65
2022/08/19 13:11:24;;;;;;;7.68;6.88;;;;;;;;;;5027170;28;20187;-64
2022/08/19 13:13:50;;;;;;;7.53;6.82;;;;;;;;;;5027843;28;20642;-64
2022/08/19 13:16:17;;;;;;;7.07;6.30;;;;;;;;;;5026363;28;20178;-65
2022/08/19 13:18:47;;;;;;;6.25;5.65;;;;;;;;;;5029352;28;20649;-63
2022/08/19 13:21:12;;;;;;;6.13;5.10;;;;;;;;;;5026414;28;20182;-65
2022/08/19 13:23:39;;;;;;;7.25;6.50;;;;;;;;;;5015976;28;20191;-64
2022/08/19 13:26:07;;;;;;;6.72;5.97;;;;;;;;;;5023238;28;20194;-63
2022/08/19 13:34:05;;;;;;;11.15;7.28;;;;;;;;;;5023816;28;20525;-64
2022/08/19 13:36:35;;;;;;;9.77;8.32;;;;;;;;;;5028974;28;20174;-64
2022/08/19 13:39:00;;;;;;;10.32;8.27;;;;;;;;;;5027654;28;20678;-64
2022/08/19 13:41:26;;;;;;;10.60;9.50;;;;;;;;;;5023521;28;20193;-64
2022/08/19 13:43:52;;;;;;;10.00;9.00;;;;;;;;;;5025935;28;20681;-63
2022/08/19 13:46:17;;;;;;;10.70;8.60;;;;;;;;;;5024639;28;20225;-64
2022/08/19 13:48:43;;;;;;;12.38;8.93;;;;;;;;;;5031324;28;20170;-64
2022/08/19 13:51:10;;;;;;;13.55;9.85;;;;;;;;;;5025470;28;20186;-64
2022/08/19 13:53:39;;;;;;;12.70;10.43;;;;;;;;;;5032382;28;20170;-64
2022/08/19 13:56:06;;;;;;;11.95;9.65;;;;;;;;;;5026070;28;20179;-65
2022/08/19 13:58:32;;;;;;;11.20;10.10;;;;;;;;;;5029828;28;20556;-64
2022/08/19 14:00:58;;;;;;;12.27;10.35;;;;;;;;;;5027322;28;20302;-64
2022/08/19 14:03:24;;;;;;;12.07;10.02;;;;;;;;;;5025683;28;20181;-64
2022/08/19 14:05:49;;;;;;;10.95;9.85;;;;;;;;;;5030847;28;20272;-65
2022/08/19 14:08:15;;;;;;;10.13;8.30;;;;;;;;;;5040778;28;20213;-64
2022/08/19 14:10:42;;;;;;;11.40;10.02;;;;;;;;;;5033701;28;20623;-64
2022/08/19 14:13:08;;;;;;;10.77;8.40;;;;;;;;;;5031798;28;20232;-64
2022/08/19 14:15:33;;;;;;;8.68;7.45;;;;;;;;;;5029918;28;20174;-64
2022/08/19 14:17:59;;;;;;;8.00;6.68;;;;;;;;;;5032188;28;20288;-63
2022/08/19 14:20:25;;;;;;;8.43;7.10;;;;;;;;;;5032045;28;20182;-64
2022/08/19 14:22:51;;;;;;;8.15;6.80;;;;;;;;;;5031494;28;20194;-64
2022/08/19 14:25:20;;;;;;;8.38;6.32;;;;;;;;;;5022728;28;20252;-64
2022/08/19 14:27:45;;;;;;;8.93;5.95;;;;;;;;;;5031632;28;20273;-64
2022/08/19 14:30:14;;;;;;;8.50;6.47;;;;;;;;;;5032144;28;20273;-64
2022/08/19 14:32:39;;;;;;;8.93;6.72;;;;;;;;;;5028064;28;20206;-64
2022/08/19 14:35:07;;;;;;;9.80;6.80;;;;;;;;;;5031398;28;20201;-64
2022/08/19 14:37:33;;;;;;;8.95;7.75;;;;;;;;;;5029839;28;20187;-67
2022/08/19 14:39:59;;;;;;;8.65;6.78;;;;;;;;;;5029946;28;20182;-65
2022/08/19 14:42:24;;;;;;;11.45;7.45;;;;;;;;;;5029539;28;20268;-64
2022/08/19 14:44:50;;;;;;;8.43;7.40;;;;;;;;;;5030507;28;20178;-65
2022/08/19 14:47:16;;;;;;;8.80;7.63;;;;;;;;;;5028549;28;20625;-64
2022/08/19 14:49:41;;;;;;;8.68;6.80;;;;;;;;;;5030207;28;20190;-64